sensor_id;sensor_type;location;lat;lon;timestamp;P1;durP1;ratioP1;P2;durP2;ratioP2
34673;SDS011;20879;55.668;37.858;2023-08-31T00:02:19;10.68;;;7.38;;
34673;SDS011;20879;55.668;37.858;2023-08-31T00:04:52;10.43;;;7.35;;
34673;SDS011;20879;55.668;37.858;2023-08-31T00:07:26;11.50;;;7.95;;
34673;SDS011;20879;55.668;37.858;2023-08-31T00:09:58;12.82;;;8.00;;
34673;SDS011;20879;55.668;37.858;2023-08-31T00:12:36;13.95;;;8.18;;
34673;SDS011;20879;55.668;37.858;2023-08-31T00:15:06;13.13;;;8.05;;
34673;SDS011;20879;55.668;37.858;2023-08-31T00:17:37;10.65;;;7.93;;
34673;SDS011;20879;55.668;37.858;2023-08-31T00:20:10;12.43;;;7.95;;
34673;SDS011;20879;55.668;37.858;2023-08-31T00:22:45;14.00;;;8.57;;
34673;SDS011;20879;55.668;37.858;2023-08-31T00:25:16;11.95;;;8.43;;
34673;SDS011;20879;55.668;37.858;2023-08-31T00:27:45;11.90;;;8.55;;
34673;SDS011;20879;55.668;37.858;2023-08-31T00:32:47;10.77;;;8.20;;
34673;SDS011;20879;55.668;37.858;2023-08-31T00:35:29;12.63;;;10.43;;
34673;SDS011;20879;55.668;37.858;2023-08-31T00:38:01;16.67;;;10.80;;
34673;SDS011;20879;55.668;37.858;2023-08-31T00:40:41;16.85;;;11.65;;
34673;SDS011;20879;55.668;37.858;2023-08-31T00:43:12;17.48;;;11.30;;
34673;SDS011;20879;55.668;37.858;2023-08-31T00:45:48;17.27;;;12.07;;
34673;SDS011;20879;55.668;37.858;2023-08-31T00:48:20;15.60;;;12.40;;
34673;SDS011;20879;55.668;37.858;2023-08-31T00:50:55;16.95;;;11.88;;
34673;SDS011;20879;55.668;37.858;2023-08-31T00:53:27;17.42;;;12.18;;
34673;SDS011;20879;55.668;37.858;2023-08-31T00:56:03;15.02;;;12.05;;
34673;SDS011;20879;55.668;37.858;2023-08-31T00:58:47;13.88;;;10.95;;
34673;SDS011;20879;55.668;37.858;2023-08-31T01:01:22;16.13;;;11.82;;
34673;SDS011;20879;55.668;37.858;2023-08-31T01:04:09;20.10;;;12.35;;
34673;SDS011;20879;55.668;37.858;2023-08-31T01:07:08;17.27;;;12.63;;
34673;SDS011;20879;55.668;37.858;2023-08-31T01:09:53;16.65;;;13.07;;
34673;SDS011;20879;55.668;37.858;2023-08-31T01:12:43;19.08;;;12.95;;
34673;SDS011;20879;55.668;37.858;2023-08-31T01:15:28;17.83;;;13.07;;
34673;SDS011;20879;55.668;37.858;2023-08-31T01:18:03;16.25;;;12.65;;
34673;SDS011;20879;55.668;37.858;2023-08-31T01:20:44;18.50;;;12.98;;
34673;SDS011;20879;55.668;37.858;2023-08-31T01:23:30;20.85;;;15.05;;
34673;SDS011;20879;55.668;37.858;2023-08-31T01:26:24;21.13;;;14.90;;
34673;SDS011;20879;55.668;37.858;2023-08-31T01:29:04;21.38;;;14.98;;
34673;SDS011;20879;55.668;37.858;2023-08-31T01:31:42;20.40;;;14.88;;
34673;SDS011;20879;55.668;37.858;2023-08-31T01:37:08;18.95;;;14.52;;
34673;SDS011;20879;55.668;37.858;2023-08-31T01:39:48;20.67;;;13.85;;
34673;SDS011;20879;55.668;37.858;2023-08-31T01:42:29;19.48;;;13.77;;
34673;SDS011;20879;55.668;37.858;2023-08-31T01:47:31;21.52;;;14.50;;
34673;SDS011;20879;55.668;37.858;2023-08-31T01:50:07;20.95;;;15.60;;
34673;SDS011;20879;55.668;37.858;2023-08-31T01:52:45;22.77;;;15.82;;
34673;SDS011;20879;55.668;37.858;2023-08-31T01:55:17;21.50;;;15.73;;
34673;SDS011;20879;55.668;37.858;2023-08-31T01:57:52;20.75;;;15.77;;
34673;SDS011;20879;55.668;37.858;2023-08-31T02:00:25;22.40;;;14.93;;
34673;SDS011;20879;55.668;37.858;2023-08-31T02:03:01;20.02;;;15.32;;
34673;SDS011;20879;55.668;37.858;2023-08-31T02:05:35;21.00;;;15.35;;
34673;SDS011;20879;55.668;37.858;2023-08-31T02:08:04;21.95;;;15.70;;
34673;SDS011;20879;55.668;37.858;2023-08-31T02:10:46;23.63;;;15.82;;
34673;SDS011;20879;55.668;37.858;2023-08-31T02:13:29;24.13;;;16.88;;
34673;SDS011;20879;55.668;37.858;2023-08-31T02:15:59;23.77;;;16.13;;
34673;SDS011;20879;55.668;37.858;2023-08-31T02:18:31;19.42;;;14.93;;
34673;SDS011;20879;55.668;37.858;2023-08-31T02:21:12;22.65;;;15.45;;
34673;SDS011;20879;55.668;37.858;2023-08-31T02:23:44;19.73;;;14.90;;
34673;SDS011;20879;55.668;37.858;2023-08-31T02:26:21;17.05;;;12.73;;
34673;SDS011;20879;55.668;37.858;2023-08-31T02:28:52;15.95;;;12.40;;
34673;SDS011;20879;55.668;37.858;2023-08-31T02:31:21;15.18;;;11.45;;
34673;SDS011;20879;55.668;37.858;2023-08-31T02:34:00;17.58;;;12.23;;
34673;SDS011;20879;55.668;37.858;2023-08-31T02:36:31;15.63;;;11.50;;
34673;SDS011;20879;55.668;37.858;2023-08-31T02:39:01;17.50;;;12.70;;
34673;SDS011;20879;55.668;37.858;2023-08-31T02:41:33;19.75;;;11.55;;
34673;SDS011;20879;55.668;37.858;2023-08-31T02:44:04;15.63;;;11.20;;
34673;SDS011;20879;55.668;37.858;2023-08-31T02:46:34;15.18;;;11.23;;
34673;SDS011;20879;55.668;37.858;2023-08-31T02:49:04;14.60;;;11.23;;
34673;SDS011;20879;55.668;37.858;2023-08-31T02:51:41;19.23;;;11.80;;
34673;SDS011;20879;55.668;37.858;2023-08-31T02:54:11;19.05;;;12.43;;
34673;SDS011;20879;55.668;37.858;2023-08-31T02:56:43;22.55;;;11.82;;
34673;SDS011;20879;55.668;37.858;2023-08-31T02:59:15;17.98;;;11.52;;
34673;SDS011;20879;55.668;37.858;2023-08-31T03:01:52;19.92;;;12.80;;
34673;SDS011;20879;55.668;37.858;2023-08-31T03:04:27;17.15;;;12.20;;
34673;SDS011;20879;55.668;37.858;2023-08-31T03:06:57;18.50;;;11.02;;
34673;SDS011;20879;55.668;37.858;2023-08-31T03:09:26;16.85;;;11.18;;
34673;SDS011;20879;55.668;37.858;2023-08-31T03:12:01;16.90;;;11.65;;
34673;SDS011;20879;55.668;37.858;2023-08-31T03:14:41;18.58;;;10.85;;
34673;SDS011;20879;55.668;37.858;2023-08-31T03:17:10;19.10;;;10.93;;
34673;SDS011;20879;55.668;37.858;2023-08-31T03:19:41;16.00;;;10.80;;
34673;SDS011;20879;55.668;37.858;2023-08-31T03:22:13;16.92;;;12.18;;
34673;SDS011;20879;55.668;37.858;2023-08-31T03:24:43;19.35;;;11.93;;
34673;SDS011;20879;55.668;37.858;2023-08-31T03:27:15;20.23;;;11.77;;
34673;SDS011;20879;55.668;37.858;2023-08-31T03:29:47;18.05;;;11.38;;
34673;SDS011;20879;55.668;37.858;2023-08-31T03:32:17;15.60;;;11.10;;
34673;SDS011;20879;55.668;37.858;2023-08-31T03:34:50;17.00;;;10.57;;
34673;SDS011;20879;55.668;37.858;2023-08-31T03:37:27;16.40;;;11.15;;
34673;SDS011;20879;55.668;37.858;2023-08-31T03:40:04;16.90;;;10.50;;
34673;SDS011;20879;55.668;37.858;2023-08-31T03:42:37;15.50;;;10.68;;
34673;SDS011;20879;55.668;37.858;2023-08-31T03:45:08;18.40;;;10.65;;
34673;SDS011;20879;55.668;37.858;2023-08-31T03:47:40;16.80;;;10.23;;
34673;SDS011;20879;55.668;37.858;2023-08-31T03:50:13;15.85;;;10.35;;
34673;SDS011;20879;55.668;37.858;2023-08-31T03:52:45;16.48;;;10.88;;
34673;SDS011;20879;55.668;37.858;2023-08-31T03:55:17;16.90;;;10.98;;
34673;SDS011;20879;55.668;37.858;2023-08-31T04:00:24;18.05;;;10.57;;
34673;SDS011;20879;55.668;37.858;2023-08-31T04:03:00;15.35;;;10.63;;
34673;SDS011;20879;55.668;37.858;2023-08-31T04:05:31;14.90;;;10.57;;
34673;SDS011;20879;55.668;37.858;2023-08-31T04:08:03;14.57;;;9.63;;
34673;SDS011;20879;55.668;37.858;2023-08-31T04:13:07;12.60;;;9.50;;
34673;SDS011;20879;55.668;37.858;2023-08-31T04:15:38;16.38;;;10.93;;
34673;SDS011;20879;55.668;37.858;2023-08-31T04:18:14;19.50;;;10.05;;
34673;SDS011;20879;55.668;37.858;2023-08-31T04:20:48;17.65;;;10.55;;
34673;SDS011;20879;55.668;37.858;2023-08-31T04:23:19;13.40;;;10.18;;
34673;SDS011;20879;55.668;37.858;2023-08-31T04:25:51;15.98;;;9.90;;
34673;SDS011;20879;55.668;37.858;2023-08-31T04:28:23;16.55;;;10.23;;
34673;SDS011;20879;55.668;37.858;2023-08-31T04:30:55;13.77;;;9.68;;
34673;SDS011;20879;55.668;37.858;2023-08-31T04:33:24;14.30;;;9.60;;
34673;SDS011;20879;55.668;37.858;2023-08-31T04:35:54;14.77;;;9.52;;
34673;SDS011;20879;55.668;37.858;2023-08-31T04:38:24;13.75;;;10.32;;
34673;SDS011;20879;55.668;37.858;2023-08-31T04:41:01;16.25;;;10.25;;
34673;SDS011;20879;55.668;37.858;2023-08-31T04:43:34;15.45;;;9.77;;
34673;SDS011;20879;55.668;37.858;2023-08-31T04:46:15;13.85;;;9.43;;
34673;SDS011;20879;55.668;37.858;2023-08-31T04:48:59;16.55;;;10.32;;
34673;SDS011;20879;55.668;37.858;2023-08-31T04:51:28;14.63;;;10.30;;
34673;SDS011;20879;55.668;37.858;2023-08-31T04:54:01;13.65;;;9.65;;
34673;SDS011;20879;55.668;37.858;2023-08-31T04:56:34;13.05;;;9.55;;
34673;SDS011;20879;55.668;37.858;2023-08-31T05:01:38;16.13;;;9.23;;
34673;SDS011;20879;55.668;37.858;2023-08-31T05:04:13;14.25;;;9.52;;
34673;SDS011;20879;55.668;37.858;2023-08-31T05:06:43;14.65;;;10.00;;
34673;SDS011;20879;55.668;37.858;2023-08-31T05:09:24;14.80;;;9.77;;
34673;SDS011;20879;55.668;37.858;2023-08-31T05:12:04;18.27;;;10.35;;
34673;SDS011;20879;55.668;37.858;2023-08-31T05:14:43;17.83;;;10.23;;
34673;SDS011;20879;55.668;37.858;2023-08-31T05:17:15;18.05;;;10.02;;
34673;SDS011;20879;55.668;37.858;2023-08-31T05:19:46;14.57;;;10.10;;
34673;SDS011;20879;55.668;37.858;2023-08-31T05:22:18;16.98;;;10.65;;
34673;SDS011;20879;55.668;37.858;2023-08-31T05:24:59;16.30;;;10.35;;
34673;SDS011;20879;55.668;37.858;2023-08-31T05:27:31;19.33;;;11.35;;
34673;SDS011;20879;55.668;37.858;2023-08-31T05:30:03;15.20;;;10.43;;
34673;SDS011;20879;55.668;37.858;2023-08-31T05:32:32;14.57;;;10.55;;
34673;SDS011;20879;55.668;37.858;2023-08-31T05:35:03;16.80;;;10.80;;
34673;SDS011;20879;55.668;37.858;2023-08-31T05:37:39;20.02;;;11.30;;
34673;SDS011;20879;55.668;37.858;2023-08-31T05:40:10;15.75;;;11.02;;
34673;SDS011;20879;55.668;37.858;2023-08-31T05:42:42;23.30;;;11.90;;
34673;SDS011;20879;55.668;37.858;2023-08-31T05:45:16;18.10;;;10.73;;
34673;SDS011;20879;55.668;37.858;2023-08-31T05:47:47;19.95;;;10.90;;
34673;SDS011;20879;55.668;37.858;2023-08-31T05:50:22;18.58;;;10.80;;
34673;SDS011;20879;55.668;37.858;2023-08-31T05:52:51;13.40;;;9.63;;
34673;SDS011;20879;55.668;37.858;2023-08-31T05:55:22;15.65;;;10.00;;
34673;SDS011;20879;55.668;37.858;2023-08-31T05:57:52;18.27;;;10.57;;
34673;SDS011;20879;55.668;37.858;2023-08-31T06:00:24;18.90;;;10.15;;
34673;SDS011;20879;55.668;37.858;2023-08-31T06:02:55;19.67;;;10.75;;
34673;SDS011;20879;55.668;37.858;2023-08-31T06:05:26;16.35;;;9.60;;
34673;SDS011;20879;55.668;37.858;2023-08-31T06:08:02;17.10;;;9.85;;
34673;SDS011;20879;55.668;37.858;2023-08-31T06:10:31;21.17;;;10.52;;
34673;SDS011;20879;55.668;37.858;2023-08-31T06:13:08;15.77;;;10.20;;
34673;SDS011;20879;55.668;37.858;2023-08-31T06:15:45;12.95;;;9.05;;
34673;SDS011;20879;55.668;37.858;2023-08-31T06:18:19;19.25;;;10.60;;
34673;SDS011;20879;55.668;37.858;2023-08-31T06:20:51;18.48;;;10.45;;
34673;SDS011;20879;55.668;37.858;2023-08-31T06:23:21;14.18;;;10.15;;
34673;SDS011;20879;55.668;37.858;2023-08-31T06:25:53;15.32;;;9.85;;
34673;SDS011;20879;55.668;37.858;2023-08-31T06:28:29;18.85;;;9.93;;
34673;SDS011;20879;55.668;37.858;2023-08-31T06:31:03;17.20;;;9.73;;
34673;SDS011;20879;55.668;37.858;2023-08-31T06:33:33;17.20;;;9.68;;
34673;SDS011;20879;55.668;37.858;2023-08-31T06:36:02;14.30;;;9.02;;
34673;SDS011;20879;55.668;37.858;2023-08-31T06:38:32;14.70;;;9.50;;
34673;SDS011;20879;55.668;37.858;2023-08-31T06:41:02;13.70;;;8.73;;
34673;SDS011;20879;55.668;37.858;2023-08-31T06:43:31;17.27;;;8.43;;
34673;SDS011;20879;55.668;37.858;2023-08-31T06:46:01;21.33;;;9.52;;
34673;SDS011;20879;55.668;37.858;2023-08-31T06:48:50;13.65;;;8.35;;
34673;SDS011;20879;55.668;37.858;2023-08-31T06:51:20;14.32;;;9.05;;
34673;SDS011;20879;55.668;37.858;2023-08-31T06:53:56;15.48;;;8.82;;
34673;SDS011;20879;55.668;37.858;2023-08-31T06:56:38;15.27;;;8.30;;
34673;SDS011;20879;55.668;37.858;2023-08-31T06:59:13;11.65;;;8.35;;
34673;SDS011;20879;55.668;37.858;2023-08-31T07:01:47;15.38;;;8.50;;
34673;SDS011;20879;55.668;37.858;2023-08-31T07:04:26;17.20;;;8.70;;
34673;SDS011;20879;55.668;37.858;2023-08-31T07:07:08;13.68;;;8.40;;
34673;SDS011;20879;55.668;37.858;2023-08-31T07:09:41;15.48;;;11.88;;
34673;SDS011;20879;55.668;37.858;2023-08-31T07:12:12;13.57;;;8.70;;
34673;SDS011;20879;55.668;37.858;2023-08-31T07:14:42;15.23;;;9.07;;
34673;SDS011;20879;55.668;37.858;2023-08-31T07:17:26;13.07;;;8.32;;
34673;SDS011;20879;55.668;37.858;2023-08-31T07:20:05;15.57;;;7.70;;
34673;SDS011;20879;55.668;37.858;2023-08-31T07:22:37;13.40;;;7.95;;
34673;SDS011;20879;55.668;37.858;2023-08-31T07:25:12;14.60;;;7.95;;
34673;SDS011;20879;55.668;37.858;2023-08-31T07:27:47;13.13;;;7.88;;
34673;SDS011;20879;55.668;37.858;2023-08-31T07:30:16;13.18;;;8.23;;
34673;SDS011;20879;55.668;37.858;2023-08-31T07:32:57;14.15;;;7.60;;
34673;SDS011;20879;55.668;37.858;2023-08-31T07:35:44;12.70;;;7.22;;
34673;SDS011;20879;55.668;37.858;2023-08-31T07:38:20;13.45;;;7.95;;
34673;SDS011;20879;55.668;37.858;2023-08-31T07:40:55;18.08;;;8.18;;
34673;SDS011;20879;55.668;37.858;2023-08-31T07:43:25;14.33;;;8.00;;
34673;SDS011;20879;55.668;37.858;2023-08-31T07:45:56;14.43;;;8.30;;
34673;SDS011;20879;55.668;37.858;2023-08-31T07:48:28;14.75;;;7.35;;
34673;SDS011;20879;55.668;37.858;2023-08-31T07:50:58;11.93;;;7.55;;
34673;SDS011;20879;55.668;37.858;2023-08-31T07:53:30;16.75;;;7.35;;
34673;SDS011;20879;55.668;37.858;2023-08-31T07:56:05;14.95;;;7.65;;
34673;SDS011;20879;55.668;37.858;2023-08-31T07:58:35;11.20;;;7.85;;
34673;SDS011;20879;55.668;37.858;2023-08-31T08:01:08;13.52;;;7.53;;
34673;SDS011;20879;55.668;37.858;2023-08-31T08:06:17;12.40;;;7.30;;
34673;SDS011;20879;55.668;37.858;2023-08-31T08:08:48;13.07;;;7.50;;
34673;SDS011;20879;55.668;37.858;2023-08-31T08:11:23;11.25;;;7.20;;
34673;SDS011;20879;55.668;37.858;2023-08-31T08:13:54;12.77;;;7.40;;
34673;SDS011;20879;55.668;37.858;2023-08-31T08:16:26;16.25;;;8.10;;
34673;SDS011;20879;55.668;37.858;2023-08-31T08:19:03;17.58;;;7.65;;
34673;SDS011;20879;55.668;37.858;2023-08-31T08:21:35;13.55;;;6.38;;
34673;SDS011;20879;55.668;37.858;2023-08-31T08:24:05;13.60;;;6.78;;
34673;SDS011;20879;55.668;37.858;2023-08-31T08:26:38;18.67;;;6.70;;
34673;SDS011;20879;55.668;37.858;2023-08-31T08:29:14;10.57;;;7.05;;
34673;SDS011;20879;55.668;37.858;2023-08-31T08:31:49;18.40;;;7.35;;
34673;SDS011;20879;55.668;37.858;2023-08-31T08:36:58;12.52;;;6.90;;
34673;SDS011;20879;55.668;37.858;2023-08-31T08:39:30;17.67;;;6.85;;
34673;SDS011;20879;55.668;37.858;2023-08-31T08:42:00;14.93;;;7.43;;
34673;SDS011;20879;55.668;37.858;2023-08-31T08:44:42;18.33;;;7.20;;
34673;SDS011;20879;55.668;37.858;2023-08-31T08:47:18;18.17;;;6.72;;
34673;SDS011;20879;55.668;37.858;2023-08-31T08:49:55;13.32;;;6.95;;
34673;SDS011;20879;55.668;37.858;2023-08-31T08:52:34;13.23;;;6.88;;
34673;SDS011;20879;55.668;37.858;2023-08-31T08:55:05;16.80;;;6.82;;
34673;SDS011;20879;55.668;37.858;2023-08-31T08:57:39;11.30;;;6.07;;
34673;SDS011;20879;55.668;37.858;2023-08-31T09:00:10;12.93;;;6.00;;
34673;SDS011;20879;55.668;37.858;2023-08-31T09:02:53;18.88;;;6.60;;
34673;SDS011;20879;55.668;37.858;2023-08-31T09:05:25;13.27;;;6.53;;
34673;SDS011;20879;55.668;37.858;2023-08-31T09:08:01;11.30;;;6.18;;
34673;SDS011;20879;55.668;37.858;2023-08-31T09:10:38;11.25;;;6.38;;
34673;SDS011;20879;55.668;37.858;2023-08-31T09:13:10;15.02;;;6.13;;
34673;SDS011;20879;55.668;37.858;2023-08-31T09:15:45;15.00;;;6.03;;
34673;SDS011;20879;55.668;37.858;2023-08-31T09:18:22;8.82;;;5.90;;
34673;SDS011;20879;55.668;37.858;2023-08-31T09:20:57;12.20;;;6.05;;
34673;SDS011;20879;55.668;37.858;2023-08-31T09:23:33;10.02;;;6.05;;
34673;SDS011;20879;55.668;37.858;2023-08-31T09:26:11;16.42;;;6.78;;
34673;SDS011;20879;55.668;37.858;2023-08-31T09:28:47;10.93;;;6.70;;
34673;SDS011;20879;55.668;37.858;2023-08-31T09:31:18;10.85;;;5.80;;
34673;SDS011;20879;55.668;37.858;2023-08-31T09:33:51;12.50;;;5.82;;
34673;SDS011;20879;55.668;37.858;2023-08-31T09:36:32;6.07;;;5.40;;
34673;SDS011;20879;55.668;37.858;2023-08-31T09:39:02;12.13;;;5.30;;
34673;SDS011;20879;55.668;37.858;2023-08-31T09:41:36;12.48;;;5.90;;
34673;SDS011;20879;55.668;37.858;2023-08-31T09:44:24;10.43;;;5.30;;
34673;SDS011;20879;55.668;37.858;2023-08-31T09:47:02;8.27;;;5.07;;
34673;SDS011;20879;55.668;37.858;2023-08-31T09:49:34;12.05;;;5.07;;
34673;SDS011;20879;55.668;37.858;2023-08-31T09:52:09;12.15;;;6.40;;
34673;SDS011;20879;55.668;37.858;2023-08-31T09:54:48;12.18;;;6.10;;
34673;SDS011;20879;55.668;37.858;2023-08-31T09:57:22;13.27;;;5.25;;
34673;SDS011;20879;55.668;37.858;2023-08-31T10:00:13;12.63;;;5.32;;
34673;SDS011;20879;55.668;37.858;2023-08-31T10:02:54;9.50;;;4.85;;
34673;SDS011;20879;55.668;37.858;2023-08-31T10:05:28;15.15;;;5.93;;
34673;SDS011;20879;55.668;37.858;2023-08-31T10:08:05;12.88;;;5.10;;
34673;SDS011;20879;55.668;37.858;2023-08-31T10:10:37;9.90;;;5.18;;
34673;SDS011;20879;55.668;37.858;2023-08-31T10:13:14;11.85;;;4.95;;
34673;SDS011;20879;55.668;37.858;2023-08-31T10:15:50;9.18;;;4.80;;
34673;SDS011;20879;55.668;37.858;2023-08-31T10:18:24;13.07;;;5.63;;
34673;SDS011;20879;55.668;37.858;2023-08-31T10:21:12;11.38;;;4.80;;
34673;SDS011;20879;55.668;37.858;2023-08-31T10:24:00;12.73;;;5.43;;
34673;SDS011;20879;55.668;37.858;2023-08-31T10:26:31;7.65;;;5.05;;
34673;SDS011;20879;55.668;37.858;2023-08-31T10:29:24;8.77;;;4.75;;
34673;SDS011;20879;55.668;37.858;2023-08-31T10:32:02;10.45;;;5.22;;
34673;SDS011;20879;55.668;37.858;2023-08-31T10:34:36;10.70;;;5.03;;
34673;SDS011;20879;55.668;37.858;2023-08-31T10:37:21;9.95;;;5.05;;
34673;SDS011;20879;55.668;37.858;2023-08-31T10:39:56;9.02;;;5.75;;
34673;SDS011;20879;55.668;37.858;2023-08-31T10:42:44;10.57;;;5.28;;
34673;SDS011;20879;55.668;37.858;2023-08-31T10:45:14;8.95;;;5.25;;
34673;SDS011;20879;55.668;37.858;2023-08-31T10:47:51;12.27;;;5.15;;
34673;SDS011;20879;55.668;37.858;2023-08-31T10:50:41;8.63;;;5.13;;
34673;SDS011;20879;55.668;37.858;2023-08-31T10:53:13;10.68;;;5.15;;
34673;SDS011;20879;55.668;37.858;2023-08-31T10:55:53;9.77;;;5.30;;
34673;SDS011;20879;55.668;37.858;2023-08-31T10:58:28;8.90;;;5.25;;
34673;SDS011;20879;55.668;37.858;2023-08-31T11:01:14;9.35;;;4.88;;
34673;SDS011;20879;55.668;37.858;2023-08-31T11:04:09;10.73;;;5.43;;
34673;SDS011;20879;55.668;37.858;2023-08-31T11:06:45;9.00;;;5.15;;
34673;SDS011;20879;55.668;37.858;2023-08-31T11:09:21;8.38;;;5.10;;
34673;SDS011;20879;55.668;37.858;2023-08-31T11:11:59;10.52;;;5.53;;
34673;SDS011;20879;55.668;37.858;2023-08-31T11:14:30;12.10;;;5.07;;
34673;SDS011;20879;55.668;37.858;2023-08-31T11:17:02;10.07;;;5.32;;
34673;SDS011;20879;55.668;37.858;2023-08-31T11:19:34;12.18;;;5.63;;
34673;SDS011;20879;55.668;37.858;2023-08-31T11:22:05;14.60;;;5.63;;
34673;SDS011;20879;55.668;37.858;2023-08-31T11:24:40;13.48;;;5.13;;
34673;SDS011;20879;55.668;37.858;2023-08-31T11:27:14;8.23;;;5.05;;
34673;SDS011;20879;55.668;37.858;2023-08-31T11:29:53;11.48;;;5.15;;
34673;SDS011;20879;55.668;37.858;2023-08-31T11:32:34;10.10;;;5.28;;
34673;SDS011;20879;55.668;37.858;2023-08-31T11:35:09;9.43;;;5.03;;
34673;SDS011;20879;55.668;37.858;2023-08-31T11:37:38;12.30;;;5.75;;
34673;SDS011;20879;55.668;37.858;2023-08-31T11:40:09;9.45;;;5.53;;
34673;SDS011;20879;55.668;37.858;2023-08-31T11:42:41;10.10;;;5.15;;
34673;SDS011;20879;55.668;37.858;2023-08-31T11:45:11;15.35;;;5.80;;
34673;SDS011;20879;55.668;37.858;2023-08-31T11:47:42;10.85;;;5.40;;
34673;SDS011;20879;55.668;37.858;2023-08-31T11:50:13;13.23;;;5.22;;
34673;SDS011;20879;55.668;37.858;2023-08-31T11:52:46;9.73;;;5.28;;
34673;SDS011;20879;55.668;37.858;2023-08-31T11:55:26;10.20;;;5.30;;
34673;SDS011;20879;55.668;37.858;2023-08-31T11:57:58;14.85;;;5.53;;
34673;SDS011;20879;55.668;37.858;2023-08-31T12:00:35;10.38;;;5.20;;
34673;SDS011;20879;55.668;37.858;2023-08-31T12:03:10;9.93;;;5.50;;
34673;SDS011;20879;55.668;37.858;2023-08-31T12:05:47;9.35;;;5.20;;
34673;SDS011;20879;55.668;37.858;2023-08-31T12:08:27;13.32;;;5.47;;
34673;SDS011;20879;55.668;37.858;2023-08-31T12:13:38;11.90;;;5.78;;
34673;SDS011;20879;55.668;37.858;2023-08-31T12:16:12;10.93;;;5.22;;
34673;SDS011;20879;55.668;37.858;2023-08-31T12:18:44;12.95;;;5.90;;
34673;SDS011;20879;55.668;37.858;2023-08-31T12:21:21;10.27;;;6.00;;
34673;SDS011;20879;55.668;37.858;2023-08-31T12:23:56;13.98;;;5.63;;
34673;SDS011;20879;55.668;37.858;2023-08-31T12:26:32;18.38;;;5.82;;
34673;SDS011;20879;55.668;37.858;2023-08-31T12:29:05;12.32;;;5.32;;
34673;SDS011;20879;55.668;37.858;2023-08-31T12:31:38;10.73;;;5.78;;
34673;SDS011;20879;55.668;37.858;2023-08-31T12:34:11;13.38;;;5.65;;
34673;SDS011;20879;55.668;37.858;2023-08-31T12:36:51;9.43;;;5.72;;
34673;SDS011;20879;55.668;37.858;2023-08-31T12:39:21;13.07;;;5.28;;
34673;SDS011;20879;55.668;37.858;2023-08-31T12:49:29;10.30;;;5.97;;
34673;SDS011;20879;55.668;37.858;2023-08-31T12:51:59;10.57;;;5.38;;
34673;SDS011;20879;55.668;37.858;2023-08-31T12:54:29;10.63;;;5.80;;
34673;SDS011;20879;55.668;37.858;2023-08-31T12:57:01;14.32;;;6.25;;
34673;SDS011;20879;55.668;37.858;2023-08-31T13:02:12;14.23;;;5.70;;
34673;SDS011;20879;55.668;37.858;2023-08-31T13:04:51;12.70;;;6.20;;
34673;SDS011;20879;55.668;37.858;2023-08-31T13:07:21;15.57;;;5.65;;
34673;SDS011;20879;55.668;37.858;2023-08-31T13:09:56;16.23;;;5.88;;
34673;SDS011;20879;55.668;37.858;2023-08-31T13:12:32;11.60;;;5.70;;
34673;SDS011;20879;55.668;37.858;2023-08-31T13:15:03;9.40;;;5.28;;
34673;SDS011;20879;55.668;37.858;2023-08-31T13:17:38;18.38;;;5.85;;
34673;SDS011;20879;55.668;37.858;2023-08-31T13:20:16;10.35;;;5.65;;
34673;SDS011;20879;55.668;37.858;2023-08-31T13:22:52;14.63;;;5.38;;
34673;SDS011;20879;55.668;37.858;2023-08-31T13:25:30;9.70;;;5.55;;
34673;SDS011;20879;55.668;37.858;2023-08-31T13:28:01;10.45;;;5.82;;
34673;SDS011;20879;55.668;37.858;2023-08-31T13:30:33;14.05;;;5.63;;
34673;SDS011;20879;55.668;37.858;2023-08-31T13:33:04;18.52;;;5.97;;
34673;SDS011;20879;55.668;37.858;2023-08-31T13:35:38;14.25;;;5.03;;
34673;SDS011;20879;55.668;37.858;2023-08-31T13:38:10;11.68;;;5.82;;
34673;SDS011;20879;55.668;37.858;2023-08-31T13:40:46;17.13;;;5.50;;
34673;SDS011;20879;55.668;37.858;2023-08-31T13:45:54;11.45;;;5.68;;
34673;SDS011;20879;55.668;37.858;2023-08-31T13:48:29;11.45;;;5.78;;
34673;SDS011;20879;55.668;37.858;2023-08-31T13:51:12;10.07;;;4.90;;
34673;SDS011;20879;55.668;37.858;2023-08-31T13:53:45;12.25;;;5.47;;
34673;SDS011;20879;55.668;37.858;2023-08-31T13:56:17;13.13;;;5.57;;
34673;SDS011;20879;55.668;37.858;2023-08-31T13:58:51;14.93;;;5.72;;
34673;SDS011;20879;55.668;37.858;2023-08-31T14:01:23;8.55;;;5.55;;
34673;SDS011;20879;55.668;37.858;2023-08-31T14:03:54;11.15;;;5.45;;
34673;SDS011;20879;55.668;37.858;2023-08-31T14:06:28;15.98;;;5.55;;
34673;SDS011;20879;55.668;37.858;2023-08-31T14:09:06;13.88;;;5.38;;
34673;SDS011;20879;55.668;37.858;2023-08-31T14:11:38;14.40;;;5.63;;
34673;SDS011;20879;55.668;37.858;2023-08-31T14:14:08;16.05;;;6.20;;
34673;SDS011;20879;55.668;37.858;2023-08-31T14:16:41;14.07;;;6.10;;
34673;SDS011;20879;55.668;37.858;2023-08-31T14:19:13;13.53;;;6.30;;
34673;SDS011;20879;55.668;37.858;2023-08-31T14:21:49;11.00;;;5.88;;
34673;SDS011;20879;55.668;37.858;2023-08-31T14:24:27;12.88;;;6.50;;
34673;SDS011;20879;55.668;37.858;2023-08-31T14:27:00;12.27;;;5.53;;
34673;SDS011;20879;55.668;37.858;2023-08-31T14:29:36;15.38;;;5.88;;
34673;SDS011;20879;55.668;37.858;2023-08-31T14:32:06;13.35;;;6.05;;
34673;SDS011;20879;55.668;37.858;2023-08-31T14:34:37;10.52;;;5.90;;
34673;SDS011;20879;55.668;37.858;2023-08-31T14:37:09;12.65;;;6.03;;
34673;SDS011;20879;55.668;37.858;2023-08-31T14:39:40;14.88;;;6.18;;
34673;SDS011;20879;55.668;37.858;2023-08-31T14:42:10;14.77;;;6.28;;
34673;SDS011;20879;55.668;37.858;2023-08-31T14:47:15;14.55;;;5.43;;
34673;SDS011;20879;55.668;37.858;2023-08-31T14:49:46;15.93;;;6.03;;
34673;SDS011;20879;55.668;37.858;2023-08-31T14:52:18;14.15;;;6.00;;
34673;SDS011;20879;55.668;37.858;2023-08-31T14:54:52;10.45;;;5.95;;
34673;SDS011;20879;55.668;37.858;2023-08-31T14:57:23;19.20;;;7.23;;
34673;SDS011;20879;55.668;37.858;2023-08-31T14:59:54;9.13;;;5.50;;
34673;SDS011;20879;55.668;37.858;2023-08-31T15:02:34;12.45;;;6.05;;
34673;SDS011;20879;55.668;37.858;2023-08-31T15:05:05;9.25;;;6.10;;
34673;SDS011;20879;55.668;37.858;2023-08-31T15:07:38;10.48;;;5.75;;
34673;SDS011;20879;55.668;37.858;2023-08-31T15:10:09;11.77;;;6.40;;
34673;SDS011;20879;55.668;37.858;2023-08-31T15:12:42;12.85;;;5.72;;
34673;SDS011;20879;55.668;37.858;2023-08-31T15:15:12;14.48;;;5.13;;
34673;SDS011;20879;55.668;37.858;2023-08-31T15:17:47;11.05;;;5.72;;
34673;SDS011;20879;55.668;37.858;2023-08-31T15:20:21;13.65;;;5.90;;
34673;SDS011;20879;55.668;37.858;2023-08-31T15:22:58;16.23;;;6.10;;
34673;SDS011;20879;55.668;37.858;2023-08-31T15:28:14;15.93;;;6.13;;
34673;SDS011;20879;55.668;37.858;2023-08-31T15:30:54;17.15;;;6.50;;
34673;SDS011;20879;55.668;37.858;2023-08-31T15:33:31;13.63;;;6.47;;
34673;SDS011;20879;55.668;37.858;2023-08-31T15:38:45;13.75;;;5.65;;
34673;SDS011;20879;55.668;37.858;2023-08-31T15:41:21;12.20;;;5.90;;
34673;SDS011;20879;55.668;37.858;2023-08-31T15:44:00;17.35;;;6.15;;
34673;SDS011;20879;55.668;37.858;2023-08-31T15:46:41;16.05;;;6.53;;